Flight Track Log - Related Links

Times and Time Zones

All times are in EDT time to prevent confusion due to time zone crossing. See the MSR663 flight status page for this flight to view local times or setup timezone preferences in your user account.

Time Position Orientation Groundspeed Altitude Reporting Facility
EDT Latitude Longitude Course Direction KTS MPH feet Rate Location/Type
Thu 06:07:00 PM 27.8043 33.6890 139° Southeast  Level Estimated
Thu 06:08:00 PM 27.7144 33.7749 140° Southeast  Level Estimated
Thu 06:09:00 PM 27.6244 33.8605 140° Southeast  Level Estimated
Thu 06:10:00 PM 27.5344 33.9461 140° Southeast  Level Estimated
Thu 06:11:00 PM 27.4444 34.0315 140° Southeast  Level Estimated
Thu 06:12:00 PM 27.3543 34.1168 140° Southeast  Level Estimated
Thu 06:13:00 PM 27.2641 34.2019 140° Southeast  Level Estimated
Thu 06:14:00 PM 27.1739 34.2869 140° Southeast  Level Estimated
Thu 06:15:00 PM 27.0837 34.3717 140° Southeast  Level Estimated
Thu 06:16:00 PM 26.9933 34.4565 140° Southeast  Level Estimated
Thu 06:17:00 PM 26.9030 34.5410 140° Southeast  Level Estimated
Thu 06:18:00 PM 26.8126 34.6255 140° Southeast  Level Estimated
Thu 06:19:00 PM 26.7221 34.7098 140° Southeast  Level Estimated
Thu 06:20:00 PM 26.6316 34.7940 140° Southeast  Level Estimated
Thu 06:21:00 PM 26.5410 34.8780 140° Southeast  Level Estimated
Thu 06:22:00 PM 26.4504 34.9619 140° Southeast  Level Estimated
Thu 06:23:00 PM 26.3598 35.0457 140° Southeast  Level Estimated
Thu 06:24:00 PM 26.2691 35.1294 140° Southeast  Level Estimated
Thu 06:25:00 PM 26.1783 35.2129 140° Southeast  Level Estimated
Thu 06:26:00 PM 26.0875 35.2963 140° Southeast  Level Estimated
Thu 06:27:00 PM 25.9967 35.3795 141° Southeast  Level Estimated
Thu 06:28:00 PM 25.9058 35.4627 141° Southeast  Level Estimated
Thu 06:29:00 PM 25.8148 35.5457 141° Southeast  Level Estimated
Thu 06:30:00 PM 25.7238 35.6285 141° Southeast  Level Estimated
Thu 06:31:00 PM 25.6328 35.7113 141° Southeast  Level Estimated
Thu 06:32:00 PM 25.5417 35.7939 141° Southeast  Level Estimated
Thu 06:33:00 PM 25.4506 35.8764 141° Southeast  Level Estimated
Thu 06:34:00 PM 25.3594 35.9588 141° Southeast  Level Estimated
Thu 06:35:00 PM 25.2682 36.0410 141° Southeast  Level Estimated
Thu 06:36:00 PM 25.1769 36.1231 141° Southeast  Level Estimated
Thu 06:37:00 PM 25.0856 36.2051 141° Southeast  Level Estimated
Thu 06:38:00 PM 24.9942 36.2870 141° Southeast  Level Estimated
Thu 06:39:00 PM 24.9028 36.3688 141° Southeast  Level Estimated
Thu 06:40:00 PM 24.8114 36.4504 141° Southeast  Level Estimated
Thu 06:41:00 PM 24.7199 36.5319 141° Southeast  Level Estimated
Thu 06:42:00 PM 24.6284 36.6133 141° Southeast  Level Estimated
Thu 06:43:00 PM 24.5368 36.6946 141° Southeast  Level Estimated
Thu 06:44:00 PM 24.4452 36.7757 141° Southeast  Level Estimated
Thu 06:45:00 PM 24.3535 36.8568 141° Southeast  Level Estimated
Thu 06:46:00 PM 24.2618 36.9377 141° Southeast  Level Estimated
Thu 06:47:00 PM 24.1700 37.0185 141° Southeast  Level Estimated
Thu 06:48:00 PM 24.0783 37.0992 141° Southeast  Level Estimated
Thu 06:49:00 PM 23.9864 37.1797 141° Southeast  Level Estimated
Thu 06:50:00 PM 23.8945 37.2602 141° Southeast  Level Estimated
Thu 06:51:00 PM 23.8026 37.3405 141° Southeast  Level Estimated
Thu 06:52:00 PM 23.7106 37.4208 141° Southeast  Level Estimated
Thu 06:53:00 PM 23.6187 37.5009 141° Southeast  Level Estimated
Thu 06:54:00 PM 23.5266 37.5809 141° Southeast  Level Estimated
Thu 06:55:00 PM 23.4345 37.6608 141° Southeast  Level Estimated
Thu 06:56:00 PM 23.3424 37.7406 142° Southeast  Level Estimated
Thu 06:57:00 PM 23.2502 37.8202 142° Southeast  Level Estimated
Thu 06:58:00 PM 23.1580 37.8998 142° Southeast  Level Estimated
Thu 06:59:00 PM 23.0658 37.9793 142° Southeast  Level Estimated
Thu 07:00:00 PM 22.9735 38.0586 142° Southeast  Level Estimated
Thu 07:01:00 PM 22.8812 38.1378 142° Southeast  Level Estimated
Thu 07:02:00 PM 22.7888 38.2170 142° Southeast  Level Estimated
Thu 07:03:00 PM 22.6964 38.2960 142° Southeast  Level Estimated
Thu 07:04:00 PM 22.6040 38.3749 142° Southeast  Level Estimated
Thu 07:05:00 PM 22.5115 38.4537 142° Southeast  Level Estimated
Thu 07:06:00 PM 22.4190 38.5324 142° Southeast  Level Estimated
Thu 07:07:00 PM 22.3264 38.6110 142° Southeast  Level Estimated
Thu 07:08:00 PM 22.2338 38.6895 142° Southeast  Level Estimated
Thu 07:09:00 PM 22.1412 38.7679 142° Southeast  Level Estimated
Thu 07:10:00 PM 22.0485 38.8462 142° Southeast  Level Estimated
Thu 07:11:00 PM 21.9558 38.9244 142° Southeast  Level Estimated
Thu 07:12:00 PM 21.8631 39.0024 142° Southeast  Level Estimated
Thu 07:13:00 PM 21.7703 39.0804 142° Southeast  Level Estimated
Thu 07:14:00 PM 21.6796 39.1565 142° Southeast  Level Estimated
Thu 07:15:00 PM 21.6796 39.1565 317° Northwest  Level Estimated
Thu 07:16:00 PM 21.6796 39.1565 317° Northwest  Level Estimated
Thu 07:17:00 PM 21.6796 39.1565 317° Northwest  Level Estimated
Thu 07:18:00 PM 21.6796 39.1565 317° Northwest  Level Estimated
Thu 07:19:00 PM 21.6796 39.1565 317° Northwest  Level Estimated
Thu 07:20:00 PM 21.6796 39.1565 317° Northwest  Level Estimated
Thu 07:21:00 PM 21.6796 39.1565 317° Northwest  Level Estimated
Thu 07:22:00 PM 21.6796 39.1565 317° Northwest  Level Estimated
Thu 07:23:00 PM 21.6796 39.1565 317° Northwest  Level Estimated
Thu 07:24:00 PM 21.6796 39.1565 317° Northwest  Level Estimated
Thu 07:25:00 PM 21.6796 39.1565 317° Northwest  Level Estimated
Thu 07:26:00 PM 21.6796 39.1565 317° Northwest  Level Estimated
Thu 07:27:00 PM 21.6796 39.1565 317° Northwest  Level Estimated
Thu 07:28:00 PM 21.6796 39.1565 317° Northwest  Level Estimated
Thu 07:29:00 PM 21.6796 39.1565 317° Northwest  Level Estimated
Thu 07:30:00 PM 21.6796 39.1565 317° Northwest  Level Estimated

Login

Don't have an account? Register now (free) for customized features, flight alerts, and more!